Time;durP1;ratioP1;P1;durP2;ratioP2;P2;SDS_P1;SDS_P2;PMS_P1;PMS_P2;Temp;Humidity;BMP_temperature;BMP_pressure;BME280_temperature;BME280_humidity;BME280_pressure;Samples;Min_cycle;Max_cycle;Signal;HPM_P1;HPM_P2
2022/01/23 00:01:50;;;;;;;22.37;16.77;;;3.40;99.90;;;;;;4914131;29;20211;-56
2022/01/23 00:04:17;;;;;;;24.70;17.67;;;3.50;99.90;;;;;;4914496;29;20661;-54
2022/01/23 00:06:45;;;;;;;28.10;18.87;;;3.60;99.90;;;;;;4913538;29;20904;-56
2022/01/23 00:09:11;;;;;;;26.53;18.00;;;3.60;99.90;;;;;;4912616;29;20692;-56
2022/01/23 00:11:43;;;;;;;27.77;19.13;;;3.50;99.90;;;;;;4912668;29;20373;-54
2022/01/23 00:19:37;;;;;;;24.60;16.93;;;3.40;99.90;;;;;;4965863;28;20220;-54
2022/01/23 00:22:03;;;;;;;25.37;17.43;;;3.40;99.90;;;;;;4971588;28;20225;-53
2022/01/23 00:32:40;;;;;;;24.97;17.90;;;3.40;99.90;;;;;;4970973;28;20181;-57
2022/01/23 00:35:06;;;;;;;23.10;17.27;;;3.40;99.90;;;;;;4970951;28;20181;-56
2022/01/23 00:37:32;;;;;;;23.67;16.90;;;3.60;99.90;;;;;;5007190;28;20192;-51
2022/01/23 00:39:57;;;;;;;24.23;18.40;;;3.60;99.90;;;;;;5032691;28;20176;-55
2022/01/23 00:42:23;;;;;;;21.03;16.47;;;3.60;99.90;;;;;;5033311;28;20584;-54
2022/01/23 00:44:54;;;;;;;21.57;16.17;;;3.60;99.90;;;;;;5031768;28;20206;-52
2022/01/23 00:47:20;;;;;;;22.93;17.03;;;3.60;99.90;;;;;;5032237;28;20539;-55
2022/01/23 00:49:45;;;;;;;26.30;17.90;;;3.60;99.90;;;;;;5031930;28;20172;-56
2022/01/23 00:52:11;;;;;;;24.63;17.33;;;3.60;99.90;;;;;;5032064;28;20223;-51
2022/01/23 00:54:37;;;;;;;24.80;18.13;;;3.50;99.90;;;;;;5031644;28;20176;-55
2022/01/23 00:57:02;;;;;;;21.73;17.03;;;3.50;99.90;;;;;;5014289;28;20545;-57
2022/01/23 00:59:28;;;;;;;20.83;16.37;;;3.40;99.90;;;;;;5032100;28;20691;-56
2022/01/23 01:01:53;;;;;;;23.47;17.40;;;3.40;99.90;;;;;;5031709;28;20211;-51
2022/01/23 01:04:19;;;;;;;25.20;18.13;;;3.40;99.90;;;;;;5032033;28;20187;-54
2022/01/23 01:06:44;;;;;;;23.03;17.77;;;3.40;99.90;;;;;;5031782;28;20176;-55
2022/01/23 01:09:12;;;;;;;24.87;18.33;;;3.40;99.90;;;;;;5031906;28;20199;-53
2022/01/23 01:11:59;;;;;;;23.40;18.13;;;3.40;99.90;;;;;;5031560;28;20187;-55
2022/01/23 01:14:41;;;;;;;23.13;17.23;;;3.40;99.90;;;;;;5031843;28;20170;-50
2022/01/23 01:17:16;;;;;;;25.80;18.13;;;3.60;99.90;;;;;;5031623;28;20278;-53
2022/01/23 01:36:32;;;;;;;23.67;17.50;;;3.20;99.90;;;;;;4970615;28;20184;-55
2022/01/23 01:38:58;;;;;;;23.80;18.67;;;3.20;99.90;;;;;;4970526;28;20185;-53
2022/01/23 01:41:25;;;;;;;22.20;17.43;;;3.30;99.90;;;;;;4970729;28;20578;-54
2022/01/23 01:43:52;;;;;;;27.80;20.90;;;3.30;99.90;;;;;;4970929;28;20186;-51
2022/01/23 01:46:19;;;;;;;26.30;20.10;;;3.30;99.90;;;;;;4974229;28;20554;-51
2022/01/23 01:48:44;;;;;;;26.73;18.73;;;3.20;99.90;;;;;;4973955;28;20225;-50
2022/01/23 01:51:15;;;;;;;23.87;18.17;;;3.20;99.90;;;;;;4974239;28;20257;-55
2022/01/23 01:53:49;;;;;;;25.50;19.67;;;3.20;99.90;;;;;;4974212;28;20170;-50
2022/01/23 01:56:15;;;;;;;24.33;18.93;;;3.20;99.90;;;;;;4974061;28;20285;-51
2022/01/23 02:09:18;;;;;;;25.50;19.63;;;3.20;99.90;;;;;;5035462;28;20187;-53
2022/01/23 02:14:28;;;;;;;28.30;20.20;;;3.30;99.90;;;;;;5035270;28;20168;-50
2022/01/23 02:55:11;;;;;;;22.87;17.13;;;3.30;99.90;;;;;;5033821;28;20214;-60
2022/01/23 03:00:11;;;;;;;21.47;17.07;;;3.40;99.90;;;;;;5034081;28;20210;-51
2022/01/23 03:02:39;;;;;;;20.70;16.37;;;3.30;99.90;;;;;;5034205;28;20549;-55
2022/01/23 03:05:08;;;;;;;20.40;16.60;;;3.30;99.90;;;;;;5033526;28;20172;-57
2022/01/23 03:07:56;;;;;;;20.33;16.17;;;3.40;99.90;;;;;;5033985;28;20199;-56
2022/01/23 03:10:29;;;;;;;21.67;17.00;;;3.50;99.90;;;;;;5033863;28;20172;-54
2022/01/23 03:13:36;;;;;;;20.57;16.23;;;3.60;99.90;;;;;;5034096;28;20172;-54
2022/01/23 03:31:59;;;;;;;18.37;15.03;;;3.50;99.90;;;;;;5033582;28;20238;-55
2022/01/23 03:34:26;;;;;;;20.13;15.73;;;3.40;99.90;;;;;;5033443;28;20178;-53
2022/01/23 03:36:54;;;;;;;20.57;15.90;;;3.50;99.90;;;;;;5033067;28;20168;-56
2022/01/23 03:39:20;;;;;;;19.43;15.90;;;3.50;99.90;;;;;;5033488;28;20207;-55
2022/01/23 03:41:46;;;;;;;20.63;16.40;;;3.60;99.90;;;;;;5033123;28;20230;-58
2022/01/23 03:44:15;;;;;;;19.60;15.50;;;3.60;99.90;;;;;;5033335;28;20180;-57
2022/01/23 03:46:50;;;;;;;19.17;15.13;;;3.60;99.90;;;;;;5032864;28;20176;-56
2022/01/23 03:49:34;;;;;;;19.97;15.53;;;3.60;99.90;;;;;;5033378;28;20183;-55
2022/01/23 03:52:05;;;;;;;17.90;15.00;;;3.80;99.90;;;;;;5033003;28;20737;-55
2022/01/23 03:54:32;;;;;;;18.17;14.93;;;3.80;99.90;;;;;;5033062;28;20207;-56
2022/01/23 03:56:59;;;;;;;17.90;14.23;;;3.80;99.90;;;;;;5033163;28;20184;-51
2022/01/23 03:59:25;;;;;;;17.60;14.33;;;3.60;99.90;;;;;;5032852;28;20617;-51
2022/01/23 04:01:50;;;;;;;17.13;14.13;;;3.60;99.90;;;;;;5032965;28;20254;-53
2022/01/23 04:04:34;;;;;;;18.87;13.87;;;3.70;99.90;;;;;;5032670;28;20529;-54
2022/01/23 04:06:59;;;;;;;19.40;15.07;;;3.70;99.90;;;;;;5032638;28;20180;-51
2022/01/23 04:09:25;;;;;;;19.93;15.73;;;3.70;99.90;;;;;;5032162;28;20177;-51
2022/01/23 04:11:51;;;;;;;18.67;15.23;;;3.70;99.90;;;;;;5032885;28;20573;-58
2022/01/23 04:14:19;;;;;;;20.40;15.87;;;3.70;99.90;;;;;;5032569;28;20526;-55
2022/01/23 04:17:13;;;;;;;22.00;17.03;;;3.50;99.90;;;;;;5032431;28;20254;-54
2022/01/23 04:59:32;;;;;;;21.50;16.43;;;3.10;99.90;;;;;;5032297;28;20257;-52
2022/01/23 04:59:55;;;;;;;21.23;16.37;;;3.30;99.90;;;;;;5032129;28;20183;-55
2022/01/23 05:04:50;;;;;;;21.20;16.77;;;3.20;99.90;;;;;;5031651;28;20544;-52
2022/01/23 05:07:17;;;;;;;19.57;16.20;;;3.20;99.90;;;;;;5031702;28;20195;-55
2022/01/23 05:09:43;;;;;;;21.83;17.03;;;3.30;99.90;;;;;;5031829;28;20167;-52
2022/01/23 05:12:12;;;;;;;23.47;17.67;;;3.40;99.90;;;;;;5031978;28;20192;-57
2022/01/23 05:14:42;;;;;;;21.20;17.00;;;3.30;99.90;;;;;;5031351;28;20168;-55
2022/01/23 05:17:11;;;;;;;20.37;16.20;;;3.30;99.90;;;;;;5031793;28;20172;-57
2022/01/23 05:19:38;;;;;;;21.03;16.70;;;3.20;99.90;;;;;;5031414;28;20576;-55
2022/01/23 05:24:36;;;;;;;20.90;17.03;;;3.20;99.90;;;;;;5031486;28;20186;-58
2022/01/23 05:27:04;;;;;;;21.40;16.77;;;3.20;99.90;;;;;;5031778;28;20176;-57
2022/01/23 05:29:30;;;;;;;21.43;17.10;;;3.20;99.90;;;;;;5031494;28;20170;-57
2022/01/23 05:31:55;;;;;;;23.63;18.23;;;3.30;99.90;;;;;;5031585;28;20191;-54
2022/01/23 05:34:23;;;;;;;21.80;16.47;;;3.30;99.90;;;;;;5031619;28;20172;-56
2022/01/23 05:36:49;;;;;;;23.33;18.23;;;3.30;99.90;;;;;;5031492;28;20182;-59
2022/01/23 05:39:18;;;;;;;23.53;17.93;;;3.30;99.90;;;;;;5031709;28;20247;-54
2022/01/23 05:41:44;;;;;;;23.27;17.43;;;3.30;99.90;;;;;;5031359;28;20270;-57
2022/01/23 05:44:10;;;;;;;23.33;18.10;;;3.20;99.90;;;;;;5031593;28;20302;-56
2022/01/23 05:46:35;;;;;;;22.33;17.30;;;3.10;99.90;;;;;;5030965;28;20257;-56
2022/01/23 05:49:01;;;;;;;22.50;17.17;;;3.20;99.90;;;;;;5031535;28;20199;-58
2022/01/23 05:51:26;;;;;;;23.60;18.57;;;3.30;99.90;;;;;;5031275;28;20327;-55
2022/01/23 05:53:52;;;;;;;20.53;16.37;;;3.30;99.90;;;;;;5031527;28;20235;-56
2022/01/23 05:56:18;;;;;;;23.80;17.80;;;3.40;99.90;;;;;;5031012;28;20168;-56
2022/01/23 05:58:44;;;;;;;22.57;17.70;;;3.40;99.90;;;;;;5031411;28;20176;-57
2022/01/23 06:01:10;;;;;;;21.40;16.80;;;3.40;99.90;;;;;;5031154;28;20196;-60
2022/01/23 06:03:35;;;;;;;23.40;17.03;;;3.40;99.90;;;;;;5031424;28;20215;-56
2022/01/23 06:06:01;;;;;;;22.57;17.93;;;3.40;99.90;;;;;;5031230;28;20172;-56
2022/01/23 06:08:27;;;;;;;21.77;16.67;;;3.50;99.90;;;;;;5031324;28;20696;-56
2022/01/23 06:10:58;;;;;;;22.60;15.57;;;3.40;99.90;;;;;;5031427;28;20195;-54
2022/01/23 06:13:26;;;;;;;20.83;16.43;;;3.50;99.90;;;;;;5031230;28;20168;-53
2022/01/23 06:15:55;;;;;;;21.63;17.67;;;3.50;99.90;;;;;;5031057;28;20645;-51
2022/01/23 06:18:20;;;;;;;21.43;16.80;;;3.40;99.90;;;;;;5031088;28;20661;-54
2022/01/23 06:20:46;;;;;;;21.07;16.50;;;3.40;99.90;;;;;;5031607;28;20203;-51
2022/01/23 06:23:12;;;;;;;22.40;15.97;;;3.40;99.90;;;;;;5030935;28;20192;-53
2022/01/23 06:25:42;;;;;;;21.07;16.83;;;3.40;99.90;;;;;;5030965;28;20221;-54
2022/01/23 06:28:08;;;;;;;20.57;16.50;;;3.40;99.90;;;;;;5030739;28;20226;-59
2022/01/23 06:30:34;;;;;;;21.97;17.97;;;3.30;99.90;;;;;;5031158;28;20226;-52
2022/01/23 06:33:00;;;;;;;20.60;16.60;;;3.30;99.90;;;;;;5034752;28;20583;-60
2022/01/23 06:35:26;;;;;;;21.67;16.40;;;3.40;99.90;;;;;;5034160;28;20256;-54
2022/01/23 06:37:52;;;;;;;19.43;15.57;;;3.40;99.90;;;;;;5034581;28;20191;-57
2022/01/23 06:40:18;;;;;;;20.87;16.13;;;3.40;99.90;;;;;;5034313;28;20651;-52
2022/01/23 06:42:43;;;;;;;19.07;14.97;;;3.50;99.90;;;;;;5034491;28;20168;-56
2022/01/23 06:45:09;;;;;;;19.73;15.27;;;3.50;99.90;;;;;;5033916;28;20183;-59
2022/01/23 06:47:35;;;;;;;18.97;15.30;;;3.50;99.90;;;;;;5034330;28;20246;-55
2022/01/23 06:50:01;;;;;;;20.47;15.97;;;3.60;99.90;;;;;;5034198;28;20175;-54
2022/01/23 06:52:26;;;;;;;20.70;14.77;;;3.60;99.90;;;;;;5034305;28;20188;-54
2022/01/23 06:54:52;;;;;;;18.30;14.30;;;3.70;99.90;;;;;;5033881;28;20200;-56
2022/01/23 06:57:17;;;;;;;19.40;14.83;;;3.70;99.90;;;;;;5034025;28;20184;-56
2022/01/23 06:59:43;;;;;;;17.67;14.07;;;3.60;99.90;;;;;;5034815;28;20180;-53
2022/01/23 07:02:09;;;;;;;20.13;15.20;;;3.50;99.90;;;;;;5033980;28;20238;-55
2022/01/23 07:04:35;;;;;;;17.50;14.40;;;3.60;99.90;;;;;;5034039;28;20267;-54
2022/01/23 07:07:00;;;;;;;18.17;15.07;;;3.80;99.90;;;;;;5033816;28;20207;-56
2022/01/23 07:09:26;;;;;;;19.03;14.83;;;3.60;99.90;;;;;;5034078;28;20179;-60
2022/01/23 07:11:53;;;;;;;19.10;14.43;;;3.50;99.90;;;;;;5033709;28;20711;-52
2022/01/23 07:14:19;;;;;;;18.97;14.53;;;3.50;99.90;;;;;;5033924;28;20540;-51
2022/01/23 07:16:44;;;;;;;21.27;15.40;;;3.60;99.90;;;;;;5015622;28;20176;-53
2022/01/23 07:19:10;;;;;;;19.17;15.60;;;3.70;99.90;;;;;;5033908;28;20171;-52
2022/01/23 07:21:35;;;;;;;19.10;15.40;;;3.70;99.90;;;;;;5033727;28;20275;-56
2022/01/23 07:24:01;;;;;;;20.70;15.40;;;3.60;99.90;;;;;;5033563;28;20191;-52
2022/01/23 07:26:28;;;;;;;18.53;14.93;;;3.60;99.90;;;;;;5033354;28;20602;-53
2022/01/23 07:28:56;;;;;;;19.07;15.13;;;3.60;99.90;;;;;;5033358;28;20261;-54
2022/01/23 07:34:04;;;;;;;20.20;15.23;;;3.50;99.90;;;;;;5033503;28;20171;-58
2022/01/23 07:36:29;;;;;;;19.13;14.93;;;3.60;99.90;;;;;;5033224;28;20250;-52
2022/01/23 07:38:55;;;;;;;21.93;15.83;;;3.70;99.90;;;;;;5033239;28;20180;-52
2022/01/23 07:41:22;;;;;;;17.57;14.40;;;3.70;99.90;;;;;;5033426;28;20266;-56
2022/01/23 07:43:47;;;;;;;18.10;14.40;;;3.80;99.90;;;;;;5033067;28;20548;-52
2022/01/23 07:46:13;;;;;;;18.67;14.83;;;3.70;99.90;;;;;;5033084;28;20178;-58
2022/01/23 07:48:39;;;;;;;17.83;14.13;;;3.60;99.90;;;;;;5033070;28;20208;-58
2022/01/23 07:51:04;;;;;;;22.73;14.17;;;3.60;99.90;;;;;;5033155;28;20191;-57
2022/01/23 07:53:30;;;;;;;18.67;14.57;;;3.60;99.90;;;;;;5032997;28;20267;-51
2022/01/23 07:55:55;;;;;;;18.67;14.93;;;3.60;99.90;;;;;;5032585;28;20251;-58
2022/01/23 07:58:21;;;;;;;19.67;14.83;;;3.70;99.90;;;;;;5033061;28;20637;-53
2022/01/23 08:00:59;;;;;;;22.40;15.63;;;3.80;99.90;;;;;;5032700;28;20842;-63
2022/01/23 08:03:25;;;;;;;20.10;15.63;;;3.70;99.90;;;;;;5032996;28;20592;-55
2022/01/23 08:05:50;;;;;;;18.93;15.00;;;3.60;99.90;;;;;;5014651;28;20180;-54
2022/01/23 08:08:16;;;;;;;18.93;15.43;;;3.50;99.90;;;;;;5032754;28;20199;-59
2022/01/23 08:10:41;;;;;;;17.63;14.03;;;3.50;99.90;;;;;;5032655;28;20680;-54
2022/01/23 08:13:07;;;;;;;19.50;14.80;;;3.40;99.90;;;;;;5032809;28;20171;-52
2022/01/23 08:15:34;;;;;;;19.83;15.70;;;3.40;99.90;;;;;;5032517;28;20172;-58
2022/01/23 08:18:01;;;;;;;20.50;15.77;;;3.40;99.90;;;;;;5014665;28;20318;-51
2022/01/23 08:20:27;;;;;;;17.60;14.37;;;3.30;99.90;;;;;;5032629;28;20714;-59
2022/01/23 08:22:52;;;;;;;18.67;15.03;;;3.30;99.90;;;;;;5032314;28;20219;-55
2022/01/23 08:25:18;;;;;;;21.93;17.43;;;3.40;99.90;;;;;;5032351;28;20203;-52
2022/01/23 08:27:43;;;;;;;18.90;15.10;;;3.60;99.90;;;;;;5032038;28;20188;-54
2022/01/23 08:30:12;;;;;;;21.23;16.27;;;3.60;99.90;;;;;;5032466;28;20168;-56
2022/01/23 08:32:37;;;;;;;18.13;14.50;;;3.70;99.90;;;;;;5032242;28;20175;-59
2022/01/23 08:35:04;;;;;;;18.77;14.77;;;3.80;99.90;;;;;;5031204;28;20180;-54
2022/01/23 08:37:30;;;;;;;17.03;13.70;;;3.90;99.90;;;;;;5031669;28;20234;-53
2022/01/23 08:39:56;;;;;;;16.80;13.77;;;3.90;99.90;;;;;;5032133;28;20371;-58
2022/01/23 08:42:22;;;;;;;17.57;14.03;;;3.90;99.90;;;;;;5032024;28;20275;-54
2022/01/23 08:44:49;;;;;;;17.80;14.83;;;3.90;99.90;;;;;;5030637;28;20216;-55
2022/01/23 08:47:14;;;;;;;19.03;14.70;;;3.90;99.90;;;;;;5031718;28;20645;-60
2022/01/23 08:49:48;;;;;;;19.90;15.60;;;3.80;99.90;;;;;;5031816;28;20204;-53
2022/01/23 08:52:21;;;;;;;21.53;15.37;;;3.70;99.90;;;;;;5031767;28;20605;-55
2022/01/23 08:54:49;;;;;;;18.10;14.73;;;3.80;99.90;;;;;;5030917;28;20198;-55
2022/01/23 08:57:16;;;;;;;18.43;14.73;;;3.80;99.90;;;;;;5032577;28;20172;-55
2022/01/23 08:59:42;;;;;;;21.47;15.93;;;3.80;99.90;;;;;;5032536;28;20544;-55
2022/01/23 09:02:09;;;;;;;21.53;16.53;;;3.80;99.90;;;;;;5031883;28;20187;-54
2022/01/23 09:04:35;;;;;;;18.93;14.83;;;3.70;99.90;;;;;;5031816;28;20255;-52
2022/01/23 09:07:00;;;;;;;18.90;14.93;;;3.70;99.90;;;;;;5012741;28;20207;-54
2022/01/23 09:09:31;;;;;;;18.57;14.93;;;3.70;99.90;;;;;;5013547;28;20603;-55
2022/01/23 09:12:04;;;;;;;17.93;14.30;;;3.70;99.90;;;;;;5031037;28;20680;-52
2022/01/23 09:14:30;;;;;;;19.27;15.23;;;3.60;99.90;;;;;;5031533;28;20214;-53
2022/01/23 09:16:57;;;;;;;20.30;15.63;;;3.60;99.90;;;;;;5031231;28;20583;-56
2022/01/23 09:19:24;;;;;;;18.10;14.83;;;3.60;99.90;;;;;;5031385;28;20247;-55
2022/01/23 09:21:50;;;;;;;19.33;15.37;;;3.60;99.90;;;;;;5031626;28;20551;-51
2022/01/23 09:24:17;;;;;;;18.53;14.57;;;3.70;99.90;;;;;;5031112;28;20266;-52
2022/01/23 09:26:45;;;;;;;19.37;16.17;;;3.70;99.90;;;;;;5031414;28;20167;-56
2022/01/23 09:29:15;;;;;;;18.77;14.50;;;3.70;99.90;;;;;;5031004;28;20665;-52
2022/01/23 09:31:50;;;;;;;18.00;14.30;;;3.70;99.90;;;;;;5031511;28;20266;-52
2022/01/23 09:34:20;;;;;;;18.30;14.93;;;3.60;99.90;;;;;;5031063;28;20659;-53
2022/01/23 09:36:47;;;;;;;17.90;14.03;;;3.70;99.90;;;;;;5031076;28;20171;-55
2022/01/23 09:39:15;;;;;;;18.90;14.67;;;3.70;99.90;;;;;;5031129;28;20203;-56
2022/01/23 09:41:47;;;;;;;18.67;15.07;;;3.70;99.90;;;;;;5031079;28;20196;-51
2022/01/23 09:44:16;;;;;;;18.60;15.80;;;3.70;99.90;;;;;;5031448;28;20176;-52
2022/01/23 09:46:44;;;;;;;18.20;14.80;;;3.70;99.90;;;;;;5029280;28;20529;-54
2022/01/23 09:49:15;;;;;;;16.37;13.50;;;3.70;99.90;;;;;;5028973;28;20196;-53
2022/01/23 09:51:43;;;;;;;18.73;14.97;;;3.70;99.90;;;;;;5030007;28;20238;-54
2022/01/23 09:54:14;;;;;;;17.83;14.67;;;2.80;99.90;;;;;;5031214;28;20169;-54
2022/01/23 09:56:42;;;;;;;16.83;13.20;;;3.70;99.90;;;;;;5030601;28;20549;-54
2022/01/23 09:59:13;;;;;;;16.70;13.57;;;3.70;99.90;;;;;;5031483;28;20175;-51
2022/01/23 10:01:42;;;;;;;40.63;26.93;;;3.80;99.90;;;;;;5031338;28;20188;-54
2022/01/23 10:04:09;;;;;;;16.23;13.77;;;4.00;99.90;;;;;;5031238;28;20168;-53
2022/01/23 10:06:35;;;;;;;21.07;16.97;;;4.00;99.90;;;;;;5029083;28;20176;-51
2022/01/23 10:09:01;;;;;;;18.67;14.53;;;3.90;99.90;;;;;;5031974;28;20279;-54
2022/01/23 10:11:32;;;;;;;23.33;18.03;;;3.90;99.90;;;;;;5025140;28;20223;-54
2022/01/23 10:13:58;;;;;;;21.00;16.83;;;4.00;99.90;;;;;;5046908;28;20539;-53
2022/01/23 10:16:24;;;;;;;14.67;12.03;;;4.20;99.90;;;;;;5035881;28;20172;-59
2022/01/23 10:18:50;;;;;;;20.17;16.30;;;4.20;99.90;;;;;;5034715;28;20171;-54
2022/01/23 10:21:15;;;;;;;20.47;15.43;;;4.30;99.90;;;;;;5033181;28;20200;-60
2022/01/23 10:23:41;;;;;;;15.40;12.73;;;4.60;99.90;;;;;;5033983;28;20184;-56
2022/01/23 10:26:07;;;;;;;15.67;12.97;;;4.70;99.90;;;;;;5043755;28;20171;-58
2022/01/23 10:28:35;;;;;;;15.50;12.87;;;4.70;99.90;;;;;;5034628;28;20260;-62
2022/01/23 10:31:04;;;;;;;13.67;11.63;;;4.80;99.90;;;;;;5035380;28;20547;-57
2022/01/23 10:33:38;;;;;;;13.93;12.07;;;4.60;99.90;;;;;;5032824;28;20703;-56
2022/01/23 10:36:06;;;;;;;13.00;11.37;;;4.50;99.90;;;;;;5053921;28;20182;-60
2022/01/23 10:38:34;;;;;;;14.70;12.47;;;4.40;99.90;;;;;;5045914;28;20651;-58
2022/01/23 10:50:17;;;;;;;15.03;11.43;;;4.90;99.90;;;;;;5033879;28;20266;-59
2022/01/23 10:52:47;;;;;;;12.60;10.50;;;4.80;99.90;;;;;;5029290;28;20664;-57
2022/01/23 10:55:32;;;;;;;12.13;10.43;;;4.80;99.90;;;;;;5016327;28;20167;-59
2022/01/23 10:58:01;;;;;;;13.13;11.30;;;4.80;99.90;;;;;;5034182;28;20604;-57
2022/01/23 11:00:28;;;;;;;11.57;10.13;;;4.90;99.90;;;;;;5033907;28;20286;-58
2022/01/23 11:02:56;;;;;;;12.73;10.67;;;4.90;99.90;;;;;;5033715;28;20652;-58
2022/01/23 11:05:34;;;;;;;12.00;10.43;;;4.80;99.90;;;;;;5033728;28;20183;-57
2022/01/23 11:08:01;;;;;;;11.63;10.20;;;4.80;99.90;;;;;;5033636;28;20613;-59
2022/01/23 11:10:28;;;;;;;11.93;10.67;;;4.70;99.90;;;;;;5031500;28;20286;-57
2022/01/23 11:18:13;;;;;;;12.10;10.60;;;4.70;99.90;;;;;;5031814;28;20218;-58
2022/01/23 11:20:47;;;;;;;13.83;11.40;;;5.60;99.90;;;;;;5032475;28;20203;-55
2022/01/23 11:23:22;;;;;;;11.97;10.13;;;4.60;99.90;;;;;;5030944;28;20188;-55
2022/01/23 11:25:56;;;;;;;13.07;10.70;;;4.60;99.90;;;;;;5032798;28;20198;-56
2022/01/23 11:28:45;;;;;;;12.57;10.73;;;4.70;99.90;;;;;;5032997;28;20215;-58
2022/01/23 11:31:18;;;;;;;12.40;10.53;;;4.70;99.90;;;;;;5030406;28;20200;-60
2022/01/23 11:33:45;;;;;;;11.83;10.40;;;4.70;99.90;;;;;;5032884;28;20307;-56
2022/01/23 11:36:12;;;;;;;12.90;10.00;;;4.90;99.90;;;;;;5031632;28;20180;-56
2022/01/23 11:38:40;;;;;;;11.20;9.80;;;5.00;99.90;;;;;;5032913;28;20836;-59
2022/01/23 11:54:46;;;;;;;10.23;9.03;;;5.40;99.90;;;;;;5031364;28;20163;-61
2022/01/23 11:57:37;;;;;;;10.43;9.23;;;5.40;99.90;;;;;;5013211;28;20191;-57
2022/01/23 12:00:24;;;;;;;10.27;8.87;;;5.40;99.90;;;;;;5032780;28;20256;-56
2022/01/23 12:03:13;;;;;;;10.50;9.20;;;5.50;99.90;;;;;;5029938;28;20171;-55
2022/01/23 12:05:43;;;;;;;9.57;8.57;;;5.50;99.90;;;;;;5013121;28;20664;-59
2022/01/23 12:08:29;;;;;;;10.43;8.83;;;5.50;99.90;;;;;;5032316;28;20695;-59
2022/01/23 12:11:38;;;;;;;9.77;8.43;;;5.50;99.90;;;;;;5030307;28;20191;-59
2022/01/23 12:17:03;;;;;;;10.00;8.67;;;5.60;99.90;;;;;;5031911;28;20556;-57
2022/01/23 12:19:31;;;;;;;9.97;8.33;;;5.60;99.90;;;;;;5031737;28;20559;-57
2022/01/23 12:22:00;;;;;;;10.20;8.17;;;5.60;99.90;;;;;;5031565;28;20235;-59
2022/01/23 12:24:26;;;;;;;9.40;8.13;;;5.60;99.90;;;;;;5030449;28;20191;-56
2022/01/23 12:27:21;;;;;;;10.33;8.27;;;5.60;99.90;;;;;;5031534;28;20207;-53
2022/01/23 12:29:47;;;;;;;20.07;14.90;;;5.60;99.90;;;;;;5029812;28;20210;-59
2022/01/23 12:32:30;;;;;;;9.33;8.20;;;5.70;99.90;;;;;;5032115;28;20274;-57
2022/01/23 12:34:58;;;;;;;9.07;7.90;;;5.80;99.90;;;;;;5028850;28;20191;-62
2022/01/23 12:37:25;;;;;;;8.87;7.87;;;5.60;99.90;;;;;;5029699;28;20190;-58
2022/01/23 12:40:25;;;;;;;8.30;7.07;;;5.50;99.90;;;;;;5021227;28;20227;-61
2022/01/23 12:43:14;;;;;;;8.77;7.77;;;5.50;99.90;;;;;;5018697;28;20554;-58
2022/01/23 12:45:43;;;;;;;9.80;7.83;;;5.60;99.90;;;;;;5024505;28;20179;-57
2022/01/23 12:48:29;;;;;;;8.20;6.70;;;5.70;99.90;;;;;;5015814;28;20203;-59
2022/01/23 12:51:13;;;;;;;8.73;7.43;;;5.80;99.90;;;;;;5031733;28;20199;-60
2022/01/23 12:53:47;;;;;;;8.03;7.23;;;5.70;99.90;;;;;;5026132;28;20660;-58
2022/01/23 12:56:16;;;;;;;7.70;6.90;;;5.70;99.90;;;;;;5031742;28;20586;-57
2022/01/23 12:58:49;;;;;;;8.33;7.33;;;5.80;99.90;;;;;;5031736;28;20544;-60
2022/01/23 13:01:26;;;;;;;8.17;7.10;;;5.90;99.90;;;;;;5032285;28;20714;-57
2022/01/23 13:03:56;;;;;;;8.83;7.33;;;5.90;99.90;;;;;;5051234;28;20159;-61
2022/01/23 13:06:28;;;;;;;8.00;7.20;;;5.80;99.90;;;;;;5051263;28;20179;-55
2022/01/23 13:09:21;;;;;;;8.60;7.20;;;5.80;99.90;;;;;;5036136;28;20239;-58
2022/01/23 13:12:06;;;;;;;8.10;7.00;;;5.90;99.90;;;;;;5025105;28;20196;-58
2022/01/23 13:17:37;;;;;;;8.93;7.60;;;5.80;99.90;;;;;;5030731;28;20237;-56
2022/01/23 13:30:55;;;;;;;7.70;6.93;;;5.70;99.90;;;;;;5030311;28;20206;-61
2022/01/23 13:33:25;;;;;;;8.00;6.63;;;5.70;99.90;;;;;;5028562;28;20168;-62
2022/01/23 13:35:53;;;;;;;8.17;7.27;;;5.70;99.90;;;;;;5030026;28;20207;-61
2022/01/23 13:38:21;;;;;;;7.90;6.87;;;5.60;99.90;;;;;;5033408;28;20245;-62
2022/01/23 13:40:56;;;;;;;9.37;7.70;;;5.50;99.90;;;;;;5033397;28;20567;-60
2022/01/23 14:00:13;;;;;;;8.90;7.37;;;4.60;99.90;;;;;;5035025;28;20206;-61
2022/01/23 14:02:48;;;;;;;9.07;7.33;;;4.60;99.90;;;;;;5066659;22;20258;-55
2022/01/23 14:05:19;;;;;;;9.27;7.87;;;4.50;99.90;;;;;;4964868;28;20238;-55
2022/01/23 14:07:49;;;;;;;9.57;8.00;;;4.40;99.90;;;;;;4982921;28;20741;-54
2022/01/23 14:10:18;;;;;;;8.60;7.10;;;4.40;99.90;;;;;;4983793;28;20175;-58
2022/01/23 14:12:46;;;;;;;9.53;7.87;;;4.50;99.90;;;;;;4965997;28;20189;-51
2022/01/23 14:15:16;;;;;;;7.60;6.60;;;4.60;99.90;;;;;;4982999;28;20236;-54
2022/01/23 14:17:42;;;;;;;8.47;7.03;;;4.70;99.90;;;;;;4983970;28;20256;-58
2022/01/23 14:20:16;;;;;;;7.97;6.70;;;4.90;99.90;;;;;;4983955;28;20237;-54
2022/01/23 14:22:47;;;;;;;7.97;6.90;;;5.10;99.90;;;;;;4985454;28;20193;-50
2022/01/23 14:25:14;;;;;;;7.93;6.37;;;5.20;99.90;;;;;;4994654;28;20187;-56
2022/01/23 14:27:42;;;;;;;8.03;6.87;;;5.30;99.90;;;;;;4993483;28;20898;-51
2022/01/23 14:30:13;;;;;;;7.77;6.40;;;5.30;99.90;;;;;;4994360;28;20172;-54
2022/01/23 14:32:44;;;;;;;7.03;6.33;;;5.20;99.90;;;;;;4995271;28;20182;-55
2022/01/23 14:35:17;;;;;;;7.37;6.57;;;5.00;99.90;;;;;;4994270;28;20161;-55
2022/01/23 14:37:45;;;;;;;7.23;6.37;;;5.10;99.90;;;;;;4993048;28;20221;-54
2022/01/23 14:40:14;;;;;;;6.50;5.50;;;5.10;99.90;;;;;;4993174;28;20180;-56
2022/01/23 14:42:39;;;;;;;7.43;6.03;;;5.10;99.90;;;;;;4993960;28;20184;-55
2022/01/23 14:45:09;;;;;;;6.73;5.77;;;5.00;99.90;;;;;;4993001;28;20173;-54
2022/01/23 14:47:39;;;;;;;7.27;6.17;;;5.00;99.90;;;;;;4994285;28;20208;-54
2022/01/23 14:50:10;;;;;;;7.13;6.00;;;5.20;99.90;;;;;;4994363;28;20173;-57
2022/01/23 14:52:35;;;;;;;6.40;5.60;;;5.20;99.90;;;;;;4992211;28;20177;-59
2022/01/23 14:55:02;;;;;;;5.80;5.20;;;5.40;99.90;;;;;;4989590;28;20177;-54
2022/01/23 14:57:32;;;;;;;7.87;6.73;;;5.50;99.90;;;;;;4990630;28;20196;-57
2022/01/23 14:59:59;;;;;;;10.10;7.27;;;5.50;99.90;;;;;;4993959;28;20177;-56
2022/01/23 15:02:25;;;;;;;13.50;10.43;;;5.40;99.90;;;;;;4990956;28;20184;-52
2022/01/23 15:04:51;;;;;;;9.47;8.47;;;5.40;99.90;;;;;;4983311;28;20197;-57
2022/01/23 15:07:18;;;;;;;8.40;7.60;;;5.40;99.90;;;;;;4982142;28;20649;-58
2022/01/23 15:09:48;;;;;;;5.63;5.03;;;5.50;99.90;;;;;;4994318;28;20667;-56
2022/01/23 15:12:14;;;;;;;5.43;4.80;;;5.60;99.90;;;;;;4993619;28;20169;-59
2022/01/23 15:14:40;;;;;;;5.43;4.67;;;5.90;99.90;;;;;;4993006;28;20204;-55
2022/01/23 15:17:06;;;;;;;5.90;5.10;;;5.50;99.90;;;;;;4982349;28;20654;-59
2022/01/23 15:19:32;;;;;;;6.50;5.30;;;5.50;99.90;;;;;;4961189;28;20260;-58
2022/01/23 15:21:59;;;;;;;5.80;5.00;;;5.50;99.90;;;;;;4979897;28;20301;-57
2022/01/23 15:24:24;;;;;;;5.87;5.07;;;5.50;99.90;;;;;;4982918;28;20194;-56
2022/01/23 15:26:50;;;;;;;6.00;5.20;;;5.60;99.90;;;;;;4982004;28;20184;-57
2022/01/23 15:29:16;;;;;;;6.17;5.47;;;5.50;99.90;;;;;;4993908;28;20201;-56
2022/01/23 15:31:42;;;;;;;6.50;5.47;;;5.30;99.90;;;;;;4976565;28;20173;-55
2022/01/23 15:34:07;;;;;;;6.47;5.33;;;4.60;99.90;;;;;;4970852;28;20197;-58
2022/01/23 15:36:33;;;;;;;7.03;5.93;;;5.00;99.90;;;;;;4992196;28;20179;-58
2022/01/23 15:38:59;;;;;;;5.70;5.10;;;5.00;99.90;;;;;;4993152;28;20260;-53
2022/01/23 15:41:25;;;;;;;6.83;5.67;;;5.00;99.90;;;;;;4991371;28;20205;-58
2022/01/23 15:43:50;;;;;;;6.97;5.53;;;5.10;99.90;;;;;;4993052;28;20740;-56
2022/01/23 15:46:16;;;;;;;6.70;5.63;;;5.20;99.90;;;;;;4988083;28;20209;-56
2022/01/23 15:48:42;;;;;;;6.23;5.37;;;5.30;99.90;;;;;;4991333;28;20280;-58
2022/01/23 15:51:09;;;;;;;6.53;5.60;;;5.50;99.90;;;;;;4992527;28;20189;-56
2022/01/23 15:53:35;;;;;;;6.53;5.73;;;5.60;99.90;;;;;;4987825;28;20558;-58
2022/01/23 15:56:00;;;;;;;6.43;5.57;;;5.80;99.90;;;;;;4987490;28;20236;-55
2022/01/23 15:58:28;;;;;;;6.20;5.50;;;5.70;99.90;;;;;;4987555;28;20260;-56
2022/01/23 16:00:54;;;;;;;6.33;5.50;;;5.60;99.90;;;;;;4987133;28;20201;-56
2022/01/23 16:03:20;;;;;;;6.40;5.70;;;5.60;99.90;;;;;;4988553;28;20315;-55
2022/01/23 16:05:45;;;;;;;6.47;5.83;;;5.60;99.90;;;;;;4992480;28;20690;-55
2022/01/23 16:08:13;;;;;;;6.00;5.30;;;5.50;99.90;;;;;;4991573;28;20196;-54
2022/01/23 16:10:39;;;;;;;6.17;5.23;;;5.30;99.90;;;;;;4990394;28;20535;-56
2022/01/23 16:13:04;;;;;;;6.00;5.40;;;5.10;99.90;;;;;;4987273;28;20280;-52
2022/01/23 16:15:30;;;;;;;5.60;4.87;;;5.00;99.90;;;;;;4983756;28;20661;-54
2022/01/23 16:17:56;;;;;;;6.63;5.60;;;5.00;99.90;;;;;;4982489;28;20173;-53
2022/01/23 16:20:22;;;;;;;6.23;5.50;;;5.00;99.90;;;;;;4957559;28;20170;-56